Time;durP1;ratioP1;P1;durP2;ratioP2;P2;SDS_P1;SDS_P2;PMS_P1;PMS_P2;Temp;Humidity;BMP_temperature;BMP_pressure;BME280_temperature;BME280_humidity;BME280_pressure;Samples;Min_cycle;Max_cycle;Signal;HPM_P1;HPM_P2
2022/07/26 00:00:02;;;;;;;;;;;;;;;;;;351540;28;908;-65
2022/07/26 00:00:13;;;;;;;;;;;;;;;;;;351482;28;948;-65
2022/07/26 00:00:23;;;;;;;;;;;;;;;;;;351406;28;1158;-65
2022/07/26 00:00:33;;;;;;;;;;;;;;;;;;351544;27;896;-65
2022/07/26 00:00:43;;;;;;;;;;;;;;;;;;351508;28;955;-65
2022/07/26 00:00:53;;;;;;;;;;;;;;;;;;351472;28;797;-65
2022/07/26 00:01:04;;;;;;;;;;;;;;;;;;351554;28;967;-65
2022/07/26 00:01:15;;;;;;;;;;;;;;;;;;351538;28;825;-65
2022/07/26 00:01:25;;;;;;;;;;;;;;;;;;351492;28;906;-65
2022/07/26 00:01:35;;;;;;;;;;;;;;;;;;351428;28;1023;-65
2022/07/26 00:01:46;;;;;;;;;;;;;;;;;;351531;28;917;-65
2022/07/26 00:01:56;;;;;;;;;;;;;;;;;;351506;28;853;-66
2022/07/26 00:02:06;;;;;;;;;;;;;;;;;;351498;28;944;-65
2022/07/26 00:02:16;;;;;;;;;;;;;;;;;;351461;28;1008;-65
2022/07/26 00:02:26;;;;;;;;;;;;;;;;;;351554;27;845;-65
2022/07/26 00:02:37;;;;;;;;;;;;;;;;;;351504;28;849;-65
2022/07/26 00:02:47;;;;;;;;;;;;;;;;;;351505;28;1057;-65
2022/07/26 00:02:57;;;;;;;;;;;;;;;;;;351552;28;932;-65
2022/07/26 00:03:08;;;;;;;;;;;;;;;;;;351502;28;794;-66
2022/07/26 00:03:18;;;;;;;;;;;;;;;;;;351533;28;814;-65
2022/07/26 00:03:28;;;;;;;;;;;;;;;;;;351534;27;987;-66
2022/07/26 00:03:38;;;;;;;;;;;;;;;;;;351470;28;932;-65
2022/07/26 00:03:49;;;;;;;;;;;;;;;;;;351492;28;1023;-65
2022/07/26 00:03:59;;;;;;;;;;;;;;;;;;351501;28;853;-66
2022/07/26 00:04:10;;;;;;;;;;;;;;;;;;351519;28;912;-65
2022/07/26 00:04:21;;;;;;;;;;;;;;;;;;351522;28;797;-65
2022/07/26 00:04:31;;;;;;;;;;;;;;;;;;351524;28;998;-65
2022/07/26 00:04:41;;;;;;;;;;;;;;;;;;351551;28;884;-65
2022/07/26 00:04:51;;;;;;;;;;;;;;;;;;351460;28;858;-65
2022/07/26 00:05:02;;;;;;;;;;;;;;;;;;351524;28;999;-65
2022/07/26 00:05:13;;;;;;;;;;;;;;;;;;351468;28;829;-66
2022/07/26 00:05:23;;;;;;;;;;;;;;;;;;350173;28;1998;-65
2022/07/26 00:05:36;;;;;;;;;;;;;;;;;;351305;28;1797;-66
2022/07/26 00:05:46;;;;;;;;;;;;;;;;;;352662;28;1273;-65
2022/07/26 00:05:56;;;;;;;;;;;;;;;;;;350103;28;1687;-65
2022/07/26 00:06:07;;;;;;;;;;;;;;;;;;350136;28;917;-65
2022/07/26 00:06:17;;;;;;;;;;;;;;;;;;350114;28;937;-65
2022/07/26 00:06:27;;;;;;;;;;;;;;;;;;350748;28;1537;-65
2022/07/26 00:06:38;;;;;;;;;;;;;;;;;;352910;28;837;-65
2022/07/26 00:06:48;;;;;;;;;;;;;;;;;;352935;28;892;-65
2022/07/26 00:06:58;;;;;;;;;;;;;;;;;;352905;28;908;-65
2022/07/26 00:07:08;;;;;;;;;;;;;;;;;;352912;28;1059;-65
2022/07/26 00:07:19;;;;;;;;;;;;;;;;;;351003;28;2044;-65
2022/07/26 00:07:29;;;;;;;;;;;;;;;;;;349486;28;1653;-65
2022/07/26 00:07:40;;;;;;;;;;;;;;;;;;350880;28;1721;-64
2022/07/26 00:07:50;;;;;;;;;;;;;;;;;;351434;28;924;-65
2022/07/26 00:08:12;;;;;;;;;;;;;;;;;;351519;28;979;-65
2022/07/26 00:08:22;;;;;;;;;;;;;;;;;;351459;28;928;-65
2022/07/26 00:08:32;;;;;;;;;;;;;;;;;;351489;28;1070;-65
2022/07/26 00:08:43;;;;;;;;;;;;;;;;;;351510;28;932;-65
2022/07/26 00:08:53;;;;;;;;;;;;;;;;;;351503;28;936;-65
2022/07/26 00:09:03;;;;;;;;;;;;;;;;;;351470;28;1043;-65
2022/07/26 00:09:14;;;;;;;;;;;;;;;;;;351525;28;1635;-65
2022/07/26 00:09:24;;;;;;;;;;;;;;;;;;351520;28;976;-65
2022/07/26 00:09:35;;;;;;;;;;;;;;;;;;351547;28;829;-65
2022/07/26 00:09:45;;;;;;;;;;;;;;;;;;351510;28;1007;-65
2022/07/26 00:09:55;;;;;;;;;;;;;;;;;;351428;28;971;-65
2022/07/26 00:10:06;;;;;;;;;;;;;;;;;;351475;28;1031;-66
2022/07/26 00:10:16;;;;;;;;;;;;;;;;;;351518;28;920;-66
2022/07/26 00:10:26;;;;;;;;;;;;;;;;;;351495;28;944;-65
2022/07/26 00:10:38;;;;;;;;;;;;;;;;;;351550;28;841;-66
2022/07/26 00:10:49;;;;;;;;;;;;;;;;;;351475;28;893;-65
2022/07/26 00:10:59;;;;;;;;;;;;;;;;;;351383;28;1906;-65
2022/07/26 00:11:09;;;;;;;;;;;;;;;;;;351459;28;916;-65
2022/07/26 00:11:20;;;;;;;;;;;;;;;;;;351536;28;932;-65
2022/07/26 00:11:32;;;;;;;;;;;;;;;;;;351564;28;825;-65
2022/07/26 00:11:42;;;;;;;;;;;;;;;;;;351459;28;924;-65
2022/07/26 00:11:53;;;;;;;;;;;;;;;;;;351456;28;1022;-65
2022/07/26 00:12:03;;;;;;;;;;;;;;;;;;351447;28;996;-65
2022/07/26 00:12:13;;;;;;;;;;;;;;;;;;351484;28;891;-65
2022/07/26 00:12:23;;;;;;;;;;;;;;;;;;351489;28;969;-65
2022/07/26 00:12:34;;;;;;;;;;;;;;;;;;351538;28;916;-65
2022/07/26 00:12:44;;;;;;;;;;;;;;;;;;351539;28;924;-65
2022/07/26 00:12:54;;;;;;;;;;;;;;;;;;351463;28;835;-65
2022/07/26 00:13:04;;;;;;;;;;;;;;;;;;351502;28;904;-65
2022/07/26 00:13:16;;;;;;;;;;;;;;;;;;351465;28;916;-65
2022/07/26 00:13:26;;;;;;;;;;;;;;;;;;351511;28;1003;-64
2022/07/26 00:13:36;;;;;;;;;;;;;;;;;;351494;28;1014;-65
2022/07/26 00:13:47;;;;;;;;;;;;;;;;;;351519;28;782;-65
2022/07/26 00:13:57;;;;;;;;;;;;;;;;;;351533;28;842;-65
2022/07/26 00:14:07;;;;;;;;;;;;;;;;;;351373;28;1210;-65
2022/07/26 00:14:18;;;;;;;;;;;;;;;;;;351503;28;921;-65
2022/07/26 00:14:28;;;;;;;;;;;;;;;;;;351526;28;928;-65
2022/07/26 00:14:38;;;;;;;;;;;;;;;;;;351521;28;933;-65
2022/07/26 00:14:49;;;;;;;;;;;;;;;;;;351542;28;794;-65
2022/07/26 00:14:59;;;;;;;;;;;;;;;;;;351420;28;1345;-65
2022/07/26 00:15:10;;;;;;;;;;;;;;;;;;351505;28;971;-65
2022/07/26 00:15:20;;;;;;;;;;;;;;;;;;351523;28;999;-65
2022/07/26 00:15:30;;;;;;;;;;;;;;;;;;351515;28;964;-65
2022/07/26 00:15:40;;;;;;;;;;;;;;;;;;351522;28;924;-65
2022/07/26 00:15:51;;;;;;;;;;;;;;;;;;351456;28;854;-66
2022/07/26 00:16:02;;;;;;;;;;;;;;;;;;351511;28;857;-65
2022/07/26 00:16:13;;;;;;;;;;;;;;;;;;351441;28;1006;-65
2022/07/26 00:16:23;;;;;;;;;;;;;;;;;;351495;28;920;-65
2022/07/26 00:16:33;;;;;;;;;;;;;;;;;;351560;28;775;-65
2022/07/26 00:16:44;;;;;;;;;;;;;;;;;;351456;28;848;-66
2022/07/26 00:16:54;;;;;;;;;;;;;;;;;;351515;28;952;-65
2022/07/26 00:17:04;;;;;;;;;;;;;;;;;;351483;28;960;-65
2022/07/26 00:17:14;;;;;;;;;;;;;;;;;;351520;28;1011;-65
2022/07/26 00:17:25;;;;;;;;;;;;;;;;;;351527;28;782;-65
2022/07/26 00:17:35;;;;;;;;;;;;;;;;;;351452;28;924;-65
2022/07/26 00:17:45;;;;;;;;;;;;;;;;;;351511;28;908;-65
2022/07/26 00:17:55;;;;;;;;;;;;;;;;;;351507;28;1003;-65
2022/07/26 00:18:05;;;;;;;;;;;;;;;;;;351480;28;920;-65
2022/07/26 00:18:16;;;;;;;;;;;;;;;;;;351458;28;776;-65
2022/07/26 00:18:26;;;;;;;;;;;;;;;;;;351433;28;818;-65
2022/07/26 00:18:36;;;;;;;;;;;;;;;;;;351529;28;968;-65
2022/07/26 00:18:46;;;;;;;;;;;;;;;;;;351490;28;968;-66
2022/07/26 00:18:57;;;;;;;;;;;;;;;;;;351540;28;912;-65
2022/07/26 00:19:07;;;;;;;;;;;;;;;;;;351390;28;1283;-65
2022/07/26 00:19:18;;;;;;;;;;;;;;;;;;351514;28;999;-65
2022/07/26 00:19:28;;;;;;;;;;;;;;;;;;351486;28;940;-65
2022/07/26 00:19:38;;;;;;;;;;;;;;;;;;351463;28;1075;-65
2022/07/26 00:19:48;;;;;;;;;;;;;;;;;;351454;28;994;-65
2022/07/26 00:19:58;;;;;;;;;;;;;;;;;;351495;28;984;-65
2022/07/26 00:20:09;;;;;;;;;;;;;;;;;;351465;28;987;-65
2022/07/26 00:20:19;;;;;;;;;;;;;;;;;;351494;28;924;-65
2022/07/26 00:20:31;;;;;;;;;;;;;;;;;;351426;28;1018;-65
2022/07/26 00:20:41;;;;;;;;;;;;;;;;;;350568;28;1363;-66
2022/07/26 00:20:51;;;;;;;;;;;;;;;;;;351504;28;916;-66
2022/07/26 00:21:02;;;;;;;;;;;;;;;;;;351456;28;952;-65
2022/07/26 00:21:12;;;;;;;;;;;;;;;;;;351289;28;1336;-65
2022/07/26 00:21:23;;;;;;;;;;;;;;;;;;351519;28;945;-65
2022/07/26 00:21:35;;;;;;;;;;;;;;;;;;351489;28;999;-65
2022/07/26 00:21:45;;;;;;;;;;;;;;;;;;351495;28;940;-65
2022/07/26 00:22:33;;;;;;;;;;;;;;;;;;351453;28;951;-66
2022/07/26 00:22:43;;;;;;;;;;;;;;;;;;351521;27;948;-65
2022/07/26 00:22:54;;;;;;;;;;;;;;;;;;351436;28;1072;-66
2022/07/26 00:23:04;;;;;;;;;;;;;;;;;;351540;28;976;-65
2022/07/26 00:23:15;;;;;;;;;;;;;;;;;;351448;28;934;-66
2022/07/26 00:23:25;;;;;;;;;;;;;;;;;;351498;28;825;-65
2022/07/26 00:23:35;;;;;;;;;;;;;;;;;;351470;28;979;-65
2022/07/26 00:23:45;;;;;;;;;;;;;;;;;;351490;28;912;-65
2022/07/26 00:23:56;;;;;;;;;;;;;;;;;;351470;28;908;-65
2022/07/26 00:24:06;;;;;;;;;;;;;;;;;;351453;28;1011;-65
2022/07/26 00:24:16;;;;;;;;;;;;;;;;;;351413;28;1302;-65
2022/07/26 00:24:26;;;;;;;;;;;;;;;;;;351459;28;1057;-65
2022/07/26 00:24:38;;;;;;;;;;;;;;;;;;351412;28;936;-66
2022/07/26 00:24:48;;;;;;;;;;;;;;;;;;351502;28;818;-65
2022/07/26 00:24:59;;;;;;;;;;;;;;;;;;351476;28;937;-65
2022/07/26 00:25:09;;;;;;;;;;;;;;;;;;351521;28;864;-65
2022/07/26 00:25:19;;;;;;;;;;;;;;;;;;351443;28;1015;-65
2022/07/26 00:25:30;;;;;;;;;;;;;;;;;;351546;28;944;-65
2022/07/26 00:25:40;;;;;;;;;;;;;;;;;;351505;28;999;-65
2022/07/26 00:25:50;;;;;;;;;;;;;;;;;;351470;28;754;-66
2022/07/26 00:26:01;;;;;;;;;;;;;;;;;;351427;27;1007;-65
2022/07/26 00:26:11;;;;;;;;;;;;;;;;;;351440;28;983;-65
2022/07/26 00:26:21;;;;;;;;;;;;;;;;;;351415;28;865;-65
2022/07/26 00:26:32;;;;;;;;;;;;;;;;;;350012;28;1583;-65
2022/07/26 00:26:42;;;;;;;;;;;;;;;;;;351427;28;920;-66
2022/07/26 00:26:52;;;;;;;;;;;;;;;;;;351522;28;766;-65
2022/07/26 00:27:02;;;;;;;;;;;;;;;;;;351497;28;996;-65
2022/07/26 00:27:12;;;;;;;;;;;;;;;;;;351479;28;908;-65
2022/07/26 00:27:23;;;;;;;;;;;;;;;;;;351473;28;913;-66
2022/07/26 00:27:35;;;;;;;;;;;;;;;;;;351485;28;928;-65
2022/07/26 00:27:46;;;;;;;;;;;;;;;;;;351477;28;928;-65
2022/07/26 00:27:56;;;;;;;;;;;;;;;;;;351496;28;940;-65
2022/07/26 00:28:06;;;;;;;;;;;;;;;;;;351498;28;849;-65
2022/07/26 00:28:16;;;;;;;;;;;;;;;;;;351495;28;924;-66
2022/07/26 00:28:27;;;;;;;;;;;;;;;;;;351505;28;909;-65
2022/07/26 00:28:37;;;;;;;;;;;;;;;;;;351433;28;1237;-65
2022/07/26 00:28:47;;;;;;;;;;;;;;;;;;351470;28;876;-65
2022/07/26 00:28:58;;;;;;;;;;;;;;;;;;351475;28;916;-65
2022/07/26 00:29:08;;;;;;;;;;;;;;;;;;351479;28;917;-65
2022/07/26 00:29:18;;;;;;;;;;;;;;;;;;351373;28;850;-65
2022/07/26 00:29:28;;;;;;;;;;;;;;;;;;351482;28;948;-65
2022/07/26 00:29:38;;;;;;;;;;;;;;;;;;351503;28;929;-65
2022/07/26 00:29:49;;;;;;;;;;;;;;;;;;351447;28;794;-65
2022/07/26 00:29:59;;;;;;;;;;;;;;;;;;351494;28;908;-65
2022/07/26 00:30:09;;;;;;;;;;;;;;;;;;351499;28;988;-65
2022/07/26 00:30:20;;;;;;;;;;;;;;;;;;351422;27;983;-65
2022/07/26 00:30:30;;;;;;;;;;;;;;;;;;351485;28;988;-65
2022/07/26 00:30:40;;;;;;;;;;;;;;;;;;351496;28;998;-65
2022/07/26 00:30:51;;;;;;;;;;;;;;;;;;351369;28;928;-65
2022/07/26 00:31:01;;;;;;;;;;;;;;;;;;351441;28;1902;-65
2022/07/26 00:31:11;;;;;;;;;;;;;;;;;;351476;28;909;-66
2022/07/26 00:31:22;;;;;;;;;;;;;;;;;;351447;28;861;-66
2022/07/26 00:31:32;;;;;;;;;;;;;;;;;;351505;28;932;-65
2022/07/26 00:31:42;;;;;;;;;;;;;;;;;;351513;28;857;-65
2022/07/26 00:31:52;;;;;;;;;;;;;;;;;;351435;28;1000;-64
2022/07/26 00:32:03;;;;;;;;;;;;;;;;;;351504;28;857;-65
2022/07/26 00:32:13;;;;;;;;;;;;;;;;;;351500;28;920;-65
2022/07/26 00:32:23;;;;;;;;;;;;;;;;;;351407;28;971;-66
2022/07/26 00:32:33;;;;;;;;;;;;;;;;;;351463;28;932;-65
2022/07/26 00:32:44;;;;;;;;;;;;;;;;;;351504;28;836;-65
2022/07/26 00:32:54;;;;;;;;;;;;;;;;;;351364;28;979;-66
2022/07/26 00:33:05;;;;;;;;;;;;;;;;;;351451;28;838;-66
2022/07/26 00:33:15;;;;;;;;;;;;;;;;;;351467;28;1040;-65
2022/07/26 00:33:25;;;;;;;;;;;;;;;;;;351403;28;1011;-65
2022/07/26 00:33:35;;;;;;;;;;;;;;;;;;351500;27;1000;-65
2022/07/26 00:33:46;;;;;;;;;;;;;;;;;;351510;28;913;-64
2022/07/26 00:33:56;;;;;;;;;;;;;;;;;;351458;28;995;-65
2022/07/26 00:34:06;;;;;;;;;;;;;;;;;;351484;28;1000;-65
2022/07/26 00:34:16;;;;;;;;;;;;;;;;;;351437;28;988;-66
2022/07/26 00:34:26;;;;;;;;;;;;;;;;;;351418;28;890;-65
2022/07/26 00:34:37;;;;;;;;;;;;;;;;;;351492;28;960;-66
2022/07/26 00:34:47;;;;;;;;;;;;;;;;;;351475;28;921;-65
2022/07/26 00:34:57;;;;;;;;;;;;;;;;;;350468;28;2101;-66
2022/07/26 00:35:08;;;;;;;;;;;;;;;;;;350981;28;1805;-65
2022/07/26 00:35:19;;;;;;;;;;;;;;;;;;352575;28;1343;-66
2022/07/26 00:35:29;;;;;;;;;;;;;;;;;;350959;28;1565;-65
2022/07/26 00:35:39;;;;;;;;;;;;;;;;;;351468;28;940;-65
2022/07/26 00:35:49;;;;;;;;;;;;;;;;;;351451;28;1047;-66
2022/07/26 00:35:59;;;;;;;;;;;;;;;;;;351438;28;964;-64
2022/07/26 00:36:10;;;;;;;;;;;;;;;;;;351471;28;905;-65
2022/07/26 00:36:20;;;;;;;;;;;;;;;;;;351453;28;1100;-65
2022/07/26 00:36:30;;;;;;;;;;;;;;;;;;351410;28;904;-66
2022/07/26 00:36:42;;;;;;;;;;;;;;;;;;351462;28;913;-65
2022/07/26 00:36:52;;;;;;;;;;;;;;;;;;350760;28;2014;-65
2022/07/26 00:37:03;;;;;;;;;;;;;;;;;;351377;28;1640;-65
2022/07/26 00:37:13;;;;;;;;;;;;;;;;;;352917;28;853;-65
2022/07/26 00:37:23;;;;;;;;;;;;;;;;;;352885;28;928;-65
2022/07/26 00:37:34;;;;;;;;;;;;;;;;;;352896;28;1012;-65
2022/07/26 00:37:44;;;;;;;;;;;;;;;;;;352886;28;825;-65
2022/07/26 00:37:55;;;;;;;;;;;;;;;;;;352907;28;797;-65
2022/07/26 00:38:05;;;;;;;;;;;;;;;;;;352845;28;964;-65
2022/07/26 00:38:15;;;;;;;;;;;;;;;;;;352848;28;940;-65
2022/07/26 00:38:25;;;;;;;;;;;;;;;;;;352909;28;770;-65
2022/07/26 00:38:37;;;;;;;;;;;;;;;;;;352888;28;975;-66
2022/07/26 00:38:47;;;;;;;;;;;;;;;;;;352902;28;912;-65
2022/07/26 00:38:57;;;;;;;;;;;;;;;;;;352879;28;786;-65
2022/07/26 00:39:07;;;;;;;;;;;;;;;;;;352882;28;782;-65
2022/07/26 00:39:18;;;;;;;;;;;;;;;;;;352823;28;917;-65
2022/07/26 00:39:28;;;;;;;;;;;;;;;;;;352789;28;944;-65
2022/07/26 00:39:38;;;;;;;;;;;;;;;;;;352915;28;821;-65
2022/07/26 00:39:48;;;;;;;;;;;;;;;;;;352907;28;793;-65
2022/07/26 00:39:58;;;;;;;;;;;;;;;;;;352883;28;999;-65
2022/07/26 00:40:09;;;;;;;;;;;;;;;;;;352885;28;924;-65
2022/07/26 00:40:19;;;;;;;;;;;;;;;;;;352840;28;787;-65
2022/07/26 00:40:30;;;;;;;;;;;;;;;;;;352882;28;765;-65
2022/07/26 00:40:40;;;;;;;;;;;;;;;;;;352906;28;891;-65
2022/07/26 00:40:50;;;;;;;;;;;;;;;;;;352852;28;944;-65
2022/07/26 00:41:00;;;;;;;;;;;;;;;;;;352873;28;920;-65
2022/07/26 00:41:10;;;;;;;;;;;;;;;;;;352805;28;882;-65
2022/07/26 00:41:21;;;;;;;;;;;;;;;;;;352854;28;917;-65
2022/07/26 00:41:31;;;;;;;;;;;;;;;;;;352845;28;936;-65
2022/07/26 00:41:41;;;;;;;;;;;;;;;;;;352919;28;841;-65
2022/07/26 00:41:51;;;;;;;;;;;;;;;;;;352878;28;924;-65
2022/07/26 00:42:02;;;;;;;;;;;;;;;;;;352812;28;980;-65
2022/07/26 00:42:12;;;;;;;;;;;;;;;;;;352886;28;1177;-65
2022/07/26 00:42:23;;;;;;;;;;;;;;;;;;352892;28;916;-65
2022/07/26 00:42:33;;;;;;;;;;;;;;;;;;352891;28;782;-66
2022/07/26 00:42:43;;;;;;;;;;;;;;;;;;352867;28;967;-65
2022/07/26 00:42:53;;;;;;;;;;;;;;;;;;352813;28;944;-65
2022/07/26 00:43:04;;;;;;;;;;;;;;;;;;352857;28;920;-65
2022/07/26 00:43:14;;;;;;;;;;;;;;;;;;352843;28;983;-65
2022/07/26 00:43:24;;;;;;;;;;;;;;;;;;352817;28;944;-65
2022/07/26 00:43:34;;;;;;;;;;;;;;;;;;352848;28;1107;-65
2022/07/26 00:43:55;;;;;;;;;;;;;;;;;;351102;28;1342;-66
2022/07/26 00:44:05;;;;;;;;;;;;;;;;;;351454;28;987;-65
2022/07/26 00:44:16;;;;;;;;;;;;;;;;;;351457;27;936;-65
2022/07/26 00:44:39;;;;;;;;;;;;;;;;;;351429;28;924;-65
2022/07/26 00:44:49;;;;;;;;;;;;;;;;;;351448;28;960;-65
2022/07/26 00:45:00;;;;;;;;;;;;;;;;;;351461;27;965;-66
2022/07/26 00:45:11;;;;;;;;;;;;;;;;;;351442;28;920;-65
2022/07/26 00:45:21;;;;;;;;;;;;;;;;;;351453;28;766;-66
2022/07/26 00:45:32;;;;;;;;;;;;;;;;;;351472;28;789;-66
2022/07/26 00:45:42;;;;;;;;;;;;;;;;;;350794;28;1324;-65
2022/07/26 00:45:52;;;;;;;;;;;;;;;;;;351461;28;932;-65
2022/07/26 00:46:02;;;;;;;;;;;;;;;;;;351513;28;845;-66
2022/07/26 00:46:13;;;;;;;;;;;;;;;;;;351440;28;948;-65
2022/07/26 00:46:23;;;;;;;;;;;;;;;;;;351460;28;904;-65
2022/07/26 00:46:33;;;;;;;;;;;;;;;;;;351360;28;948;-65
2022/07/26 00:46:43;;;;;;;;;;;;;;;;;;351494;28;785;-66
2022/07/26 00:46:54;;;;;;;;;;;;;;;;;;351492;28;790;-65
2022/07/26 00:47:04;;;;;;;;;;;;;;;;;;351482;28;861;-65
2022/07/26 00:47:14;;;;;;;;;;;;;;;;;;351427;28;936;-66
2022/07/26 00:47:25;;;;;;;;;;;;;;;;;;351421;28;980;-65
2022/07/26 00:47:35;;;;;;;;;;;;;;;;;;351418;28;924;-65
2022/07/26 00:47:46;;;;;;;;;;;;;;;;;;351513;28;762;-65
2022/07/26 00:47:56;;;;;;;;;;;;;;;;;;351406;28;952;-65
2022/07/26 00:48:06;;;;;;;;;;;;;;;;;;351503;28;841;-66
2022/07/26 00:48:17;;;;;;;;;;;;;;;;;;351457;28;928;-66
2022/07/26 00:48:27;;;;;;;;;;;;;;;;;;351510;28;967;-65
2022/07/26 00:48:38;;;;;;;;;;;;;;;;;;351396;28;949;-64
2022/07/26 00:48:48;;;;;;;;;;;;;;;;;;351473;28;868;-65
2022/07/26 00:48:58;;;;;;;;;;;;;;;;;;351460;28;963;-65
2022/07/26 00:49:09;;;;;;;;;;;;;;;;;;351505;28;896;-65
2022/07/26 00:49:19;;;;;;;;;;;;;;;;;;351462;28;852;-65
2022/07/26 00:49:29;;;;;;;;;;;;;;;;;;351403;28;926;-65
2022/07/26 00:49:40;;;;;;;;;;;;;;;;;;351439;28;1010;-65
2022/07/26 00:49:50;;;;;;;;;;;;;;;;;;351371;28;1243;-64
2022/07/26 00:50:01;;;;;;;;;;;;;;;;;;351463;28;882;-66
2022/07/26 00:50:15;;;;;;;;;;;;;;;;;;351470;28;939;-65
2022/07/26 00:50:26;;;;;;;;;;;;;;;;;;351423;28;927;-65
2022/07/26 00:50:36;;;;;;;;;;;;;;;;;;351439;28;983;-66
2022/07/26 00:50:46;;;;;;;;;;;;;;;;;;351406;28;915;-65
2022/07/26 00:50:56;;;;;;;;;;;;;;;;;;351399;28;1914;-65
2022/07/26 00:51:07;;;;;;;;;;;;;;;;;;351455;28;947;-65
2022/07/26 00:51:17;;;;;;;;;;;;;;;;;;351452;28;869;-65
2022/07/26 00:51:27;;;;;;;;;;;;;;;;;;351403;28;1185;-65
2022/07/26 00:51:38;;;;;;;;;;;;;;;;;;351405;28;978;-65
2022/07/26 00:51:48;;;;;;;;;;;;;;;;;;351430;28;940;-65
2022/07/26 00:51:58;;;;;;;;;;;;;;;;;;351459;28;869;-65
2022/07/26 00:52:09;;;;;;;;;;;;;;;;;;351414;28;952;-65
2022/07/26 00:52:20;;;;;;;;;;;;;;;;;;351456;28;861;-65
2022/07/26 00:52:30;;;;;;;;;;;;;;;;;;351443;28;986;-65
2022/07/26 00:52:40;;;;;;;;;;;;;;;;;;351483;28;821;-66
2022/07/26 00:52:51;;;;;;;;;;;;;;;;;;351407;28;798;-65
2022/07/26 00:53:01;;;;;;;;;;;;;;;;;;351459;28;971;-65
2022/07/26 00:53:11;;;;;;;;;;;;;;;;;;351450;28;936;-65
2022/07/26 00:53:22;;;;;;;;;;;;;;;;;;351433;28;1055;-65
2022/07/26 00:53:32;;;;;;;;;;;;;;;;;;351428;28;829;-66
2022/07/26 00:53:44;;;;;;;;;;;;;;;;;;351391;28;963;-65
2022/07/26 00:53:54;;;;;;;;;;;;;;;;;;351459;28;935;-65
2022/07/26 00:54:04;;;;;;;;;;;;;;;;;;351448;28;987;-65
2022/07/26 00:54:15;;;;;;;;;;;;;;;;;;351408;28;792;-65
2022/07/26 00:54:25;;;;;;;;;;;;;;;;;;351466;28;876;-65
2022/07/26 00:54:36;;;;;;;;;;;;;;;;;;351432;28;995;-65
2022/07/26 00:54:47;;;;;;;;;;;;;;;;;;351459;28;991;-65
2022/07/26 00:54:57;;;;;;;;;;;;;;;;;;351464;28;967;-65
2022/07/26 00:55:08;;;;;;;;;;;;;;;;;;351445;28;936;-65
2022/07/26 00:55:18;;;;;;;;;;;;;;;;;;351449;28;940;-66
2022/07/26 00:55:28;;;;;;;;;;;;;;;;;;351469;28;994;-66
2022/07/26 00:55:39;;;;;;;;;;;;;;;;;;351437;28;920;-65
2022/07/26 00:55:49;;;;;;;;;;;;;;;;;;351381;28;986;-65
2022/07/26 00:55:59;;;;;;;;;;;;;;;;;;351370;28;1003;-65
2022/07/26 00:56:09;;;;;;;;;;;;;;;;;;351452;28;916;-65
2022/07/26 00:56:20;;;;;;;;;;;;;;;;;;351425;28;856;-64
2022/07/26 00:56:32;;;;;;;;;;;;;;;;;;350722;28;1662;-65
2022/07/26 00:56:42;;;;;;;;;;;;;;;;;;351163;28;1660;-65
2022/07/26 00:56:53;;;;;;;;;;;;;;;;;;351446;28;1134;-65
2022/07/26 00:57:03;;;;;;;;;;;;;;;;;;350723;28;1536;-65
2022/07/26 00:57:13;;;;;;;;;;;;;;;;;;351447;28;947;-65
2022/07/26 00:57:24;;;;;;;;;;;;;;;;;;350621;28;1362;-65
2022/07/26 00:57:34;;;;;;;;;;;;;;;;;;351418;28;963;-65
2022/07/26 00:57:45;;;;;;;;;;;;;;;;;;351471;28;928;-66
2022/07/26 00:57:55;;;;;;;;;;;;;;;;;;351372;28;911;-65
2022/07/26 00:58:05;;;;;;;;;;;;;;;;;;351520;28;837;-65
2022/07/26 00:58:16;;;;;;;;;;;;;;;;;;351463;28;944;-65
2022/07/26 00:58:27;;;;;;;;;;;;;;;;;;351107;28;1568;-65
2022/07/26 00:58:37;;;;;;;;;;;;;;;;;;350935;28;1523;-65
2022/07/26 00:58:47;;;;;;;;;;;;;;;;;;351476;28;808;-65
2022/07/26 00:58:57;;;;;;;;;;;;;;;;;;351445;28;995;-65
2022/07/26 00:59:07;;;;;;;;;;;;;;;;;;351474;28;959;-65
2022/07/26 00:59:18;;;;;;;;;;;;;;;;;;351435;28;896;-65
2022/07/26 00:59:28;;;;;;;;;;;;;;;;;;351451;28;1002;-65
2022/07/26 00:59:38;;;;;;;;;;;;;;;;;;351454;28;919;-65
2022/07/26 00:59:49;;;;;;;;;;;;;;;;;;351480;28;923;-65
2022/07/26 01:00:00;;;;;;;;;;;;;;;;;;351381;28;888;-65
2022/07/26 01:00:12;;;;;;;;;;;;;;;;;;351428;28;964;-66
2022/07/26 01:00:25;;;;;;;;;;;;;;;;;;351454;28;982;-66
2022/07/26 01:00:35;;;;;;;;;;;;;;;;;;350020;28;944;-65
2022/07/26 01:00:45;;;;;;;;;;;;;;;;;;350087;28;766;-65
2022/07/26 01:00:56;;;;;;;;;;;;;;;;;;350049;28;794;-65
2022/07/26 01:01:06;;;;;;;;;;;;;;;;;;350009;28;982;-65
2022/07/26 01:01:16;;;;;;;;;;;;;;;;;;350027;28;841;-66
2022/07/26 01:01:27;;;;;;;;;;;;;;;;;;350046;28;916;-65
2022/07/26 01:01:37;;;;;;;;;;;;;;;;;;350102;28;865;-65
2022/07/26 01:01:47;;;;;;;;;;;;;;;;;;350019;28;999;-65
2022/07/26 01:01:57;;;;;;;;;;;;;;;;;;349978;28;1142;-65
2022/07/26 01:02:08;;;;;;;;;;;;;;;;;;350015;28;913;-65
2022/07/26 01:02:18;;;;;;;;;;;;;;;;;;350041;28;987;-65
2022/07/26 01:02:28;;;;;;;;;;;;;;;;;;349939;28;1346;-65
2022/07/26 01:02:39;;;;;;;;;;;;;;;;;;351412;28;1732;-65
2022/07/26 01:02:49;;;;;;;;;;;;;;;;;;351459;28;928;-65
2022/07/26 01:02:59;;;;;;;;;;;;;;;;;;351459;28;856;-65
2022/07/26 01:03:10;;;;;;;;;;;;;;;;;;351432;28;967;-65
2022/07/26 01:03:20;;;;;;;;;;;;;;;;;;351430;28;932;-65
2022/07/26 01:03:30;;;;;;;;;;;;;;;;;;351403;28;996;-65
2022/07/26 01:03:40;;;;;;;;;;;;;;;;;;351456;28;912;-65
2022/07/26 01:03:52;;;;;;;;;;;;;;;;;;351446;28;865;-65
2022/07/26 01:04:02;;;;;;;;;;;;;;;;;;350790;28;1321;-65
2022/07/26 01:04:12;;;;;;;;;;;;;;;;;;351012;28;1067;-65
2022/07/26 01:04:22;;;;;;;;;;;;;;;;;;351443;28;955;-65
2022/07/26 01:04:33;;;;;;;;;;;;;;;;;;351411;28;967;-65
2022/07/26 01:04:44;;;;;;;;;;;;;;;;;;351451;28;923;-66
2022/07/26 01:04:54;;;;;;;;;;;;;;;;;;351420;28;1005;-65
2022/07/26 01:05:05;;;;;;;;;;;;;;;;;;350054;28;2066;-66
2022/07/26 01:05:15;;;;;;;;;;;;;;;;;;352561;28;1113;-65
2022/07/26 01:05:26;;;;;;;;;;;;;;;;;;352886;28;828;-64
2022/07/26 01:05:36;;;;;;;;;;;;;;;;;;352859;28;975;-65
2022/07/26 01:05:47;;;;;;;;;;;;;;;;;;352783;28;940;-66
2022/07/26 01:05:57;;;;;;;;;;;;;;;;;;352854;28;955;-65
2022/07/26 01:06:08;;;;;;;;;;;;;;;;;;352818;28;861;-65
2022/07/26 01:06:18;;;;;;;;;;;;;;;;;;352884;28;797;-65
2022/07/26 01:06:29;;;;;;;;;;;;;;;;;;352810;28;956;-65
2022/07/26 01:06:39;;;;;;;;;;;;;;;;;;352815;28;783;-65
2022/07/26 01:06:50;;;;;;;;;;;;;;;;;;352871;28;982;-65
2022/07/26 01:07:01;;;;;;;;;;;;;;;;;;352835;27;987;-65
2022/07/26 01:07:12;;;;;;;;;;;;;;;;;;352883;28;916;-65
2022/07/26 01:07:22;;;;;;;;;;;;;;;;;;352827;28;998;-65
2022/07/26 01:07:33;;;;;;;;;;;;;;;;;;352801;28;963;-65
2022/07/26 01:07:44;;;;;;;;;;;;;;;;;;352880;28;797;-65
2022/07/26 01:07:55;;;;;;;;;;;;;;;;;;352852;28;924;-65
2022/07/26 01:08:05;;;;;;;;;;;;;;;;;;352844;28;824;-65
2022/07/26 01:08:15;;;;;;;;;;;;;;;;;;352815;28;1106;-66
2022/07/26 01:08:25;;;;;;;;;;;;;;;;;;352756;28;940;-65
2022/07/26 01:08:36;;;;;;;;;;;;;;;;;;352846;28;940;-66
2022/07/26 01:08:46;;;;;;;;;;;;;;;;;;352861;28;1034;-65
2022/07/26 01:08:56;;;;;;;;;;;;;;;;;;352811;28;924;-65
2022/07/26 01:09:07;;;;;;;;;;;;;;;;;;352835;28;1129;-65
2022/07/26 01:09:17;;;;;;;;;;;;;;;;;;352772;28;927;-66
2022/07/26 01:09:28;;;;;;;;;;;;;;;;;;352810;28;940;-65
2022/07/26 01:09:38;;;;;;;;;;;;;;;;;;352780;28;1003;-65
2022/07/26 01:09:48;;;;;;;;;;;;;;;;;;352852;28;979;-65
2022/07/26 01:10:00;;;;;;;;;;;;;;;;;;352768;28;930;-65
2022/07/26 01:10:11;;;;;;;;;;;;;;;;;;352821;28;939;-65
2022/07/26 01:10:21;;;;;;;;;;;;;;;;;;352761;28;979;-66
2022/07/26 01:10:31;;;;;;;;;;;;;;;;;;352856;28;966;-65
2022/07/26 01:10:42;;;;;;;;;;;;;;;;;;352760;28;979;-65
2022/07/26 01:10:53;;;;;;;;;;;;;;;;;;352889;27;856;-65
2022/07/26 01:11:03;;;;;;;;;;;;;;;;;;352689;28;1909;-66
2022/07/26 01:11:14;;;;;;;;;;;;;;;;;;352909;28;852;-65
2022/07/26 01:11:24;;;;;;;;;;;;;;;;;;352827;28;1178;-66
2022/07/26 01:11:34;;;;;;;;;;;;;;;;;;352846;28;924;-65
2022/07/26 01:11:44;;;;;;;;;;;;;;;;;;352866;28;769;-65
2022/07/26 01:11:55;;;;;;;;;;;;;;;;;;352838;28;884;-65
2022/07/26 01:12:05;;;;;;;;;;;;;;;;;;350699;28;1330;-65
2022/07/26 01:12:17;;;;;;;;;;;;;;;;;;350139;28;924;-65
2022/07/26 01:12:27;;;;;;;;;;;;;;;;;;349951;28;936;-65
2022/07/26 01:12:38;;;;;;;;;;;;;;;;;;350016;28;939;-66
2022/07/26 01:12:48;;;;;;;;;;;;;;;;;;350041;28;928;-65
2022/07/26 01:12:58;;;;;;;;;;;;;;;;;;349981;28;917;-65
2022/07/26 01:13:09;;;;;;;;;;;;;;;;;;350021;28;927;-66
2022/07/26 01:13:19;;;;;;;;;;;;;;;;;;350026;28;917;-66
2022/07/26 01:13:29;;;;;;;;;;;;;;;;;;350048;28;926;-65
2022/07/26 01:13:46;;;;;;;;;;;;;;;;;;350045;28;924;-65
2022/07/26 01:13:56;;;;;;;;;;;;;;;;;;350034;28;987;-65
2022/07/26 01:14:06;;;;;;;;;;;;;;;;;;349924;28;1026;-65
2022/07/26 01:14:20;;;;;;;;;;;;;;;;;;350057;28;856;-65
2022/07/26 01:14:31;;;;;;;;;;;;;;;;;;350017;28;793;-65
2022/07/26 01:14:42;;;;;;;;;;;;;;;;;;350009;28;936;-66
2022/07/26 01:14:52;;;;;;;;;;;;;;;;;;350028;28;1101;-65
2022/07/26 01:15:02;;;;;;;;;;;;;;;;;;350040;28;872;-65
2022/07/26 01:15:13;;;;;;;;;;;;;;;;;;349990;28;754;-65
2022/07/26 01:15:24;;;;;;;;;;;;;;;;;;349978;28;928;-65
2022/07/26 01:15:34;;;;;;;;;;;;;;;;;;350079;28;830;-65
2022/07/26 01:15:44;;;;;;;;;;;;;;;;;;350057;28;790;-65
2022/07/26 01:15:54;;;;;;;;;;;;;;;;;;350028;28;912;-66